sensor_id;sensor_type;location;lat;lon;timestamp;temperature;humidity
54700;DHT22;40599;53.132;6.090;2022-11-20T00:02:10;-0.30;99.90
54700;DHT22;40599;53.132;6.090;2022-11-20T00:04:36;0.40;99.90
54700;DHT22;40599;53.132;6.090;2022-11-20T00:07:02;-0.30;99.90
54700;DHT22;40599;53.132;6.090;2022-11-20T00:09:27;0.10;99.90
54700;DHT22;40599;53.132;6.090;2022-11-20T00:11:53;-0.10;99.90
54700;DHT22;40599;53.132;6.090;2022-11-20T00:14:18;0.00;99.90
54700;DHT22;40599;53.132;6.090;2022-11-20T00:16:44;-0.20;99.90
54700;DHT22;40599;53.132;6.090;2022-11-20T00:19:10;-0.10;99.90
54700;DHT22;40599;53.132;6.090;2022-11-20T00:21:35;-0.20;99.90
54700;DHT22;40599;53.132;6.090;2022-11-20T00:24:01;0.30;99.90
54700;DHT22;40599;53.132;6.090;2022-11-20T00:26:27;0.10;99.90
54700;DHT22;40599;53.132;6.090;2022-11-20T00:28:54;-0.10;99.90
54700;DHT22;40599;53.132;6.090;2022-11-20T00:31:20;0.10;99.90
54700;DHT22;40599;53.132;6.090;2022-11-20T00:33:46;0.40;99.90
54700;DHT22;40599;53.132;6.090;2022-11-20T00:36:15;0.30;99.90
54700;DHT22;40599;53.132;6.090;2022-11-20T00:38:41;-0.20;99.90
54700;DHT22;40599;53.132;6.090;2022-11-20T00:41:08;0.30;99.90
54700;DHT22;40599;53.132;6.090;2022-11-20T00:43:34;-0.30;99.90
54700;DHT22;40599;53.132;6.090;2022-11-20T00:46:00;0.20;99.90
54700;DHT22;40599;53.132;6.090;2022-11-20T00:48:26;-0.30;99.90
54700;DHT22;40599;53.132;6.090;2022-11-20T00:50:52;-0.30;99.90
54700;DHT22;40599;53.132;6.090;2022-11-20T00:53:18;-0.30;99.90
54700;DHT22;40599;53.132;6.090;2022-11-20T00:55:52;-0.10;99.90
54700;DHT22;40599;53.132;6.090;2022-11-20T00:58:17;-0.30;99.90
54700;DHT22;40599;53.132;6.090;2022-11-20T01:00:43;-0.40;99.90
54700;DHT22;40599;53.132;6.090;2022-11-20T01:03:08;-0.10;99.90
54700;DHT22;40599;53.132;6.090;2022-11-20T01:05:34;-0.20;99.90
54700;DHT22;40599;53.132;6.090;2022-11-20T01:08:00;0.10;99.90
54700;DHT22;40599;53.132;6.090;2022-11-20T01:10:26;-0.30;99.90
54700;DHT22;40599;53.132;6.090;2022-11-20T01:12:51;-0.10;99.90
54700;DHT22;40599;53.132;6.090;2022-11-20T01:15:37;-0.30;99.90
54700;DHT22;40599;53.132;6.090;2022-11-20T01:18:03;-0.30;99.90
54700;DHT22;40599;53.132;6.090;2022-11-20T01:20:28;0.00;99.90
54700;DHT22;40599;53.132;6.090;2022-11-20T01:22:54;-0.10;99.90
54700;DHT22;40599;53.132;6.090;2022-11-20T01:25:19;0.10;99.90
54700;DHT22;40599;53.132;6.090;2022-11-20T01:27:45;-0.20;99.90
54700;DHT22;40599;53.132;6.090;2022-11-20T01:30:11;-0.10;99.90
54700;DHT22;40599;53.132;6.090;2022-11-20T01:32:37;-0.30;99.90
54700;DHT22;40599;53.132;6.090;2022-11-20T01:35:02;0.00;99.90
54700;DHT22;40599;53.132;6.090;2022-11-20T01:37:29;-0.30;99.90
54700;DHT22;40599;53.132;6.090;2022-11-20T01:39:54;-0.10;99.90
54700;DHT22;40599;53.132;6.090;2022-11-20T01:42:20;0.00;99.90
54700;DHT22;40599;53.132;6.090;2022-11-20T01:47:49;-0.10;99.90
54700;DHT22;40599;53.132;6.090;2022-11-20T01:55:08;-0.30;99.90
54700;DHT22;40599;53.132;6.090;2022-11-20T01:57:34;-0.30;99.90
54700;DHT22;40599;53.132;6.090;2022-11-20T02:00:04;0.70;99.90
54700;DHT22;40599;53.132;6.090;2022-11-20T02:02:30;0.10;99.90
54700;DHT22;40599;53.132;6.090;2022-11-20T02:04:56;-0.20;99.90
54700;DHT22;40599;53.132;6.090;2022-11-20T02:07:24;0.10;99.90
54700;DHT22;40599;53.132;6.090;2022-11-20T02:09:50;-0.20;99.90
54700;DHT22;40599;53.132;6.090;2022-11-20T02:12:16;1.20;99.90
54700;DHT22;40599;53.132;6.090;2022-11-20T02:15:02;-0.30;99.90
54700;DHT22;40599;53.132;6.090;2022-11-20T02:17:27;-0.30;99.90
54700;DHT22;40599;53.132;6.090;2022-11-20T02:19:53;-0.20;99.90
54700;DHT22;40599;53.132;6.090;2022-11-20T02:22:27;0.00;99.90
54700;DHT22;40599;53.132;6.090;2022-11-20T02:24:54;-0.10;99.90
54700;DHT22;40599;53.132;6.090;2022-11-20T02:27:19;0.50;99.90
54700;DHT22;40599;53.132;6.090;2022-11-20T02:29:52;0.60;99.90
54700;DHT22;40599;53.132;6.090;2022-11-20T02:32:19;0.00;99.90
54700;DHT22;40599;53.132;6.090;2022-11-20T02:34:45;0.10;99.90
54700;DHT22;40599;53.132;6.090;2022-11-20T02:37:10;0.00;99.90
54700;DHT22;40599;53.132;6.090;2022-11-20T02:39:36;0.40;99.90
54700;DHT22;40599;53.132;6.090;2022-11-20T02:42:02;0.20;99.90
54700;DHT22;40599;53.132;6.090;2022-11-20T02:44:28;0.20;99.90
54700;DHT22;40599;53.132;6.090;2022-11-20T02:46:53;0.20;99.90
54700;DHT22;40599;53.132;6.090;2022-11-20T02:49:21;0.20;99.90
54700;DHT22;40599;53.132;6.090;2022-11-20T02:51:47;0.50;99.90
54700;DHT22;40599;53.132;6.090;2022-11-20T02:54:13;0.20;99.90
54700;DHT22;40599;53.132;6.090;2022-11-20T02:56:38;0.70;99.90
54700;DHT22;40599;53.132;6.090;2022-11-20T02:59:05;1.40;99.90
54700;DHT22;40599;53.132;6.090;2022-11-20T03:01:31;0.90;99.90
54700;DHT22;40599;53.132;6.090;2022-11-20T03:03:56;0.90;99.90
54700;DHT22;40599;53.132;6.090;2022-11-20T03:06:22;0.90;99.90
54700;DHT22;40599;53.132;6.090;2022-11-20T03:08:48;0.60;99.90
54700;DHT22;40599;53.132;6.090;2022-11-20T03:11:13;0.20;99.90
54700;DHT22;40599;53.132;6.090;2022-11-20T03:13:39;0.30;99.90
54700;DHT22;40599;53.132;6.090;2022-11-20T03:16:06;0.30;99.90
54700;DHT22;40599;53.132;6.090;2022-11-20T03:18:31;0.30;99.90
54700;DHT22;40599;53.132;6.090;2022-11-20T03:20:57;0.30;99.90
54700;DHT22;40599;53.132;6.090;2022-11-20T03:23:24;0.30;99.90
54700;DHT22;40599;53.132;6.090;2022-11-20T03:25:50;0.40;99.90
54700;DHT22;40599;53.132;6.090;2022-11-20T03:28:16;0.40;99.90
54700;DHT22;40599;53.132;6.090;2022-11-20T03:30:41;1.70;99.90
54700;DHT22;40599;53.132;6.090;2022-11-20T03:33:07;0.70;99.90
54700;DHT22;40599;53.132;6.090;2022-11-20T03:35:32;0.70;99.90
54700;DHT22;40599;53.132;6.090;2022-11-20T03:37:58;0.50;99.90
54700;DHT22;40599;53.132;6.090;2022-11-20T03:40:24;0.50;99.90
54700;DHT22;40599;53.132;6.090;2022-11-20T03:42:49;0.30;99.90
54700;DHT22;40599;53.132;6.090;2022-11-20T03:45:16;0.20;99.90
54700;DHT22;40599;53.132;6.090;2022-11-20T03:47:42;0.30;99.90
54700;DHT22;40599;53.132;6.090;2022-11-20T03:50:09;1.10;99.90
54700;DHT22;40599;53.132;6.090;2022-11-20T03:52:35;0.30;99.90
54700;DHT22;40599;53.132;6.090;2022-11-20T03:55:00;0.40;99.90
54700;DHT22;40599;53.132;6.090;2022-11-20T03:57:26;0.40;99.90
54700;DHT22;40599;53.132;6.090;2022-11-20T03:59:51;0.10;99.90
54700;DHT22;40599;53.132;6.090;2022-11-20T04:02:17;0.50;99.90
54700;DHT22;40599;53.132;6.090;2022-11-20T04:04:43;0.30;99.90
54700;DHT22;40599;53.132;6.090;2022-11-20T04:07:08;0.40;99.90
54700;DHT22;40599;53.132;6.090;2022-11-20T04:09:34;1.20;99.90
54700;DHT22;40599;53.132;6.090;2022-11-20T04:11:59;0.30;99.90
54700;DHT22;40599;53.132;6.090;2022-11-20T04:14:25;-1.60;99.90
54700;DHT22;40599;53.132;6.090;2022-11-20T04:16:51;0.90;99.90
54700;DHT22;40599;53.132;6.090;2022-11-20T04:19:16;0.40;99.90
54700;DHT22;40599;53.132;6.090;2022-11-20T04:21:43;0.90;99.90
54700;DHT22;40599;53.132;6.090;2022-11-20T04:24:09;1.10;99.90
54700;DHT22;40599;53.132;6.090;2022-11-20T04:26:36;0.50;99.90
54700;DHT22;40599;53.132;6.090;2022-11-20T04:29:01;1.50;99.90
54700;DHT22;40599;53.132;6.090;2022-11-20T04:31:28;1.60;99.90
54700;DHT22;40599;53.132;6.090;2022-11-20T04:33:54;1.50;99.90
54700;DHT22;40599;53.132;6.090;2022-11-20T04:36:23;0.30;99.90
54700;DHT22;40599;53.132;6.090;2022-11-20T04:38:56;0.30;99.90
54700;DHT22;40599;53.132;6.090;2022-11-20T04:41:22;0.40;99.90
54700;DHT22;40599;53.132;6.090;2022-11-20T04:43:49;0.20;99.90
54700;DHT22;40599;53.132;6.090;2022-11-20T04:46:15;0.50;99.90
54700;DHT22;40599;53.132;6.090;2022-11-20T04:48:41;1.30;99.90
54700;DHT22;40599;53.132;6.090;2022-11-20T04:51:07;0.30;99.90
54700;DHT22;40599;53.132;6.090;2022-11-20T04:53:32;0.30;99.90
54700;DHT22;40599;53.132;6.090;2022-11-20T04:56:05;0.30;99.90
54700;DHT22;40599;53.132;6.090;2022-11-20T04:58:31;0.10;99.90
54700;DHT22;40599;53.132;6.090;2022-11-20T05:03:28;0.30;99.90
54700;DHT22;40599;53.132;6.090;2022-11-20T05:05:54;0.50;99.90
54700;DHT22;40599;53.132;6.090;2022-11-20T05:08:19;0.20;99.90
54700;DHT22;40599;53.132;6.090;2022-11-20T05:10:45;0.20;99.90
54700;DHT22;40599;53.132;6.090;2022-11-20T05:13:11;1.30;99.90
54700;DHT22;40599;53.132;6.090;2022-11-20T05:15:36;0.10;99.90
54700;DHT22;40599;53.132;6.090;2022-11-20T05:18:02;1.00;99.90
54700;DHT22;40599;53.132;6.090;2022-11-20T05:20:27;0.10;99.90
54700;DHT22;40599;53.132;6.090;2022-11-20T05:22:56;0.10;99.90
54700;DHT22;40599;53.132;6.090;2022-11-20T05:25:22;0.30;99.90
54700;DHT22;40599;53.132;6.090;2022-11-20T05:27:47;0.20;99.90
54700;DHT22;40599;53.132;6.090;2022-11-20T05:30:13;0.40;99.90
54700;DHT22;40599;53.132;6.090;2022-11-20T05:32:39;0.50;99.90
54700;DHT22;40599;53.132;6.090;2022-11-20T05:35:04;0.10;99.90
54700;DHT22;40599;53.132;6.090;2022-11-20T05:37:30;0.00;99.90
54700;DHT22;40599;53.132;6.090;2022-11-20T05:39:55;1.30;99.90
54700;DHT22;40599;53.132;6.090;2022-11-20T05:42:21;0.00;99.90
54700;DHT22;40599;53.132;6.090;2022-11-20T05:44:59;0.30;99.90
54700;DHT22;40599;53.132;6.090;2022-11-20T05:47:25;0.50;99.90
54700;DHT22;40599;53.132;6.090;2022-11-20T05:49:51;0.10;99.90
54700;DHT22;40599;53.132;6.090;2022-11-20T05:52:17;1.20;99.90
54700;DHT22;40599;53.132;6.090;2022-11-20T05:54:42;0.80;99.90
54700;DHT22;40599;53.132;6.090;2022-11-20T05:57:08;0.10;99.90
54700;DHT22;40599;53.132;6.090;2022-11-20T05:59:34;0.40;99.90
54700;DHT22;40599;53.132;6.090;2022-11-20T06:01:59;0.20;99.90
54700;DHT22;40599;53.132;6.090;2022-11-20T06:04:25;0.10;99.90
54700;DHT22;40599;53.132;6.090;2022-11-20T06:06:50;0.10;99.90
54700;DHT22;40599;53.132;6.090;2022-11-20T06:09:16;0.10;99.90
54700;DHT22;40599;53.132;6.090;2022-11-20T06:11:42;2.50;99.90
54700;DHT22;40599;53.132;6.090;2022-11-20T06:14:07;0.20;99.90
54700;DHT22;40599;53.132;6.090;2022-11-20T06:16:33;0.10;99.90
54700;DHT22;40599;53.132;6.090;2022-11-20T06:18:58;0.20;99.90
54700;DHT22;40599;53.132;6.090;2022-11-20T06:21:24;0.60;99.90
54700;DHT22;40599;53.132;6.090;2022-11-20T06:23:50;0.70;99.90
54700;DHT22;40599;53.132;6.090;2022-11-20T06:26:17;0.10;99.90
54700;DHT22;40599;53.132;6.090;2022-11-20T06:28:43;0.20;99.90
54700;DHT22;40599;53.132;6.090;2022-11-20T06:31:09;0.30;99.90
54700;DHT22;40599;53.132;6.090;2022-11-20T06:33:35;0.20;99.90
54700;DHT22;40599;53.132;6.090;2022-11-20T06:36:01;0.30;99.90
54700;DHT22;40599;53.132;6.090;2022-11-20T06:38:27;0.10;99.90
54700;DHT22;40599;53.132;6.090;2022-11-20T06:40:53;0.20;99.90
54700;DHT22;40599;53.132;6.090;2022-11-20T06:43:19;0.10;99.90
54700;DHT22;40599;53.132;6.090;2022-11-20T06:45:44;0.30;99.90
54700;DHT22;40599;53.132;6.090;2022-11-20T06:48:10;0.40;99.90
54700;DHT22;40599;53.132;6.090;2022-11-20T06:50:36;0.50;99.90
54700;DHT22;40599;53.132;6.090;2022-11-20T06:53:02;0.80;99.90
54700;DHT22;40599;53.132;6.090;2022-11-20T06:55:29;2.30;99.90
54700;DHT22;40599;53.132;6.090;2022-11-20T06:57:54;0.20;99.90
54700;DHT22;40599;53.132;6.090;2022-11-20T07:00:20;0.80;99.90
54700;DHT22;40599;53.132;6.090;2022-11-20T07:02:46;0.10;99.90
54700;DHT22;40599;53.132;6.090;2022-11-20T07:05:11;1.40;99.90
54700;DHT22;40599;53.132;6.090;2022-11-20T07:07:37;0.10;99.90
54700;DHT22;40599;53.132;6.090;2022-11-20T07:10:03;0.60;99.90
54700;DHT22;40599;53.132;6.090;2022-11-20T07:12:28;-0.10;99.90
54700;DHT22;40599;53.132;6.090;2022-11-20T07:14:54;0.10;99.90
54700;DHT22;40599;53.132;6.090;2022-11-20T07:17:20;0.30;99.90
54700;DHT22;40599;53.132;6.090;2022-11-20T07:19:45;0.90;99.90
54700;DHT22;40599;53.132;6.090;2022-11-20T07:22:11;0.10;99.90
54700;DHT22;40599;53.132;6.090;2022-11-20T07:24:37;0.30;99.90
54700;DHT22;40599;53.132;6.090;2022-11-20T07:27:02;0.10;99.90
54700;DHT22;40599;53.132;6.090;2022-11-20T07:29:29;0.90;99.90
54700;DHT22;40599;53.132;6.090;2022-11-20T07:31:54;0.20;99.90
54700;DHT22;40599;53.132;6.090;2022-11-20T07:34:21;0.10;99.90
54700;DHT22;40599;53.132;6.090;2022-11-20T07:36:47;0.20;99.90
54700;DHT22;40599;53.132;6.090;2022-11-20T07:39:12;0.20;99.90
54700;DHT22;40599;53.132;6.090;2022-11-20T07:41:38;1.50;99.90
54700;DHT22;40599;53.132;6.090;2022-11-20T07:44:04;1.30;99.90
54700;DHT22;40599;53.132;6.090;2022-11-20T07:46:29;0.20;99.90
54700;DHT22;40599;53.132;6.090;2022-11-20T07:48:55;0.60;99.90
54700;DHT22;40599;53.132;6.090;2022-11-20T07:51:21;0.20;99.90
54700;DHT22;40599;53.132;6.090;2022-11-20T07:53:46;0.90;99.90
54700;DHT22;40599;53.132;6.090;2022-11-20T07:56:12;1.40;99.90
54700;DHT22;40599;53.132;6.090;2022-11-20T07:58:39;0.30;99.90
54700;DHT22;40599;53.132;6.090;2022-11-20T08:01:05;1.10;99.90
54700;DHT22;40599;53.132;6.090;2022-11-20T08:03:31;0.80;99.90
54700;DHT22;40599;53.132;6.090;2022-11-20T08:06:00;0.40;99.90
54700;DHT22;40599;53.132;6.090;2022-11-20T08:08:26;0.30;99.90
54700;DHT22;40599;53.132;6.090;2022-11-20T08:10:52;0.70;99.90
54700;DHT22;40599;53.132;6.090;2022-11-20T08:13:18;1.00;99.90
54700;DHT22;40599;53.132;6.090;2022-11-20T08:16:02;0.60;99.90
54700;DHT22;40599;53.132;6.090;2022-11-20T08:18:28;0.50;99.90
54700;DHT22;40599;53.132;6.090;2022-11-20T08:20:53;0.70;99.90
54700;DHT22;40599;53.132;6.090;2022-11-20T08:23:19;-1.90;99.90
54700;DHT22;40599;53.132;6.090;2022-11-20T08:25:48;0.80;99.90
54700;DHT22;40599;53.132;6.090;2022-11-20T08:28:14;0.60;99.90
54700;DHT22;40599;53.132;6.090;2022-11-20T08:30:39;2.20;99.90
54700;DHT22;40599;53.132;6.090;2022-11-20T08:33:06;0.90;99.90
54700;DHT22;40599;53.132;6.090;2022-11-20T08:35:32;0.60;99.90
54700;DHT22;40599;53.132;6.090;2022-11-20T08:37:58;1.30;99.90
54700;DHT22;40599;53.132;6.090;2022-11-20T08:40:24;0.60;99.90
54700;DHT22;40599;53.132;6.090;2022-11-20T08:42:50;0.50;99.90
54700;DHT22;40599;53.132;6.090;2022-11-20T08:45:16;1.20;99.90
54700;DHT22;40599;53.132;6.090;2022-11-20T08:47:42;0.60;99.90
54700;DHT22;40599;53.132;6.090;2022-11-20T08:50:09;0.60;99.90
54700;DHT22;40599;53.132;6.090;2022-11-20T08:52:34;0.60;99.90
54700;DHT22;40599;53.132;6.090;2022-11-20T08:55:00;1.40;99.90
54700;DHT22;40599;53.132;6.090;2022-11-20T08:57:26;0.60;99.90
54700;DHT22;40599;53.132;6.090;2022-11-20T08:59:51;2.00;99.90
54700;DHT22;40599;53.132;6.090;2022-11-20T09:02:17;1.00;99.90
54700;DHT22;40599;53.132;6.090;2022-11-20T09:04:42;1.40;99.90
54700;DHT22;40599;53.132;6.090;2022-11-20T09:07:08;0.90;99.90
54700;DHT22;40599;53.132;6.090;2022-11-20T09:09:34;1.00;99.90
54700;DHT22;40599;53.132;6.090;2022-11-20T09:11:59;1.10;99.90
54700;DHT22;40599;53.132;6.090;2022-11-20T09:14:25;1.10;99.90
54700;DHT22;40599;53.132;6.090;2022-11-20T09:16:54;1.00;99.90
54700;DHT22;40599;53.132;6.090;2022-11-20T09:19:20;1.20;99.90
54700;DHT22;40599;53.132;6.090;2022-11-20T09:21:46;1.00;99.90
54700;DHT22;40599;53.132;6.090;2022-11-20T09:24:11;-1.30;99.90
54700;DHT22;40599;53.132;6.090;2022-11-20T09:26:37;1.30;99.90
54700;DHT22;40599;53.132;6.090;2022-11-20T09:29:02;1.20;99.90
54700;DHT22;40599;53.132;6.090;2022-11-20T09:31:28;1.40;99.90
54700;DHT22;40599;53.132;6.090;2022-11-20T09:33:53;1.30;99.90
54700;DHT22;40599;53.132;6.090;2022-11-20T09:36:19;1.30;99.90
54700;DHT22;40599;53.132;6.090;2022-11-20T09:38:45;1.40;99.90
54700;DHT22;40599;53.132;6.090;2022-11-20T09:41:36;1.30;99.90
54700;DHT22;40599;53.132;6.090;2022-11-20T09:49:04;1.60;99.90
54700;DHT22;40599;53.132;6.090;2022-11-20T09:54:10;1.80;99.90
54700;DHT22;40599;53.132;6.090;2022-11-20T09:56:39;1.70;99.90
54700;DHT22;40599;53.132;6.090;2022-11-20T09:59:07;2.20;99.90
54700;DHT22;40599;53.132;6.090;2022-11-20T10:01:36;2.00;99.90
54700;DHT22;40599;53.132;6.090;2022-11-20T10:07:19;2.00;99.90
54700;DHT22;40599;53.132;6.090;2022-11-20T10:09:36;2.10;99.90
54700;DHT22;40599;53.132;6.090;2022-11-20T10:12:05;2.00;99.90
54700;DHT22;40599;53.132;6.090;2022-11-20T10:14:43;1.90;99.90
54700;DHT22;40599;53.132;6.090;2022-11-20T10:25:16;2.10;99.90
54700;DHT22;40599;53.132;6.090;2022-11-20T10:30:15;2.10;99.90
54700;DHT22;40599;53.132;6.090;2022-11-20T10:33:28;2.60;99.90
54700;DHT22;40599;53.132;6.090;2022-11-20T10:37:55;2.40;99.90
54700;DHT22;40599;53.132;6.090;2022-11-20T10:43:01;2.40;99.90
54700;DHT22;40599;53.132;6.090;2022-11-20T10:48:07;2.50;99.90
54700;DHT22;40599;53.132;6.090;2022-11-20T10:50:36;2.70;99.90
54700;DHT22;40599;53.132;6.090;2022-11-20T10:53:14;2.80;99.90
54700;DHT22;40599;53.132;6.090;2022-11-20T10:55:46;2.80;99.90
54700;DHT22;40599;53.132;6.090;2022-11-20T10:58:16;2.80;99.90
54700;DHT22;40599;53.132;6.090;2022-11-20T11:00:47;2.90;99.90
54700;DHT22;40599;53.132;6.090;2022-11-20T11:03:20;2.90;99.90
54700;DHT22;40599;53.132;6.090;2022-11-20T11:05:48;3.00;99.90
54700;DHT22;40599;53.132;6.090;2022-11-20T11:08:16;2.90;99.90
54700;DHT22;40599;53.132;6.090;2022-11-20T11:15:46;5.50;99.90
54700;DHT22;40599;53.132;6.090;2022-11-20T11:18:22;3.00;99.90
54700;DHT22;40599;53.132;6.090;2022-11-20T11:20:51;3.10;99.90
54700;DHT22;40599;53.132;6.090;2022-11-20T11:23:30;3.10;99.90
54700;DHT22;40599;53.132;6.090;2022-11-20T11:25:57;3.10;99.90
54700;DHT22;40599;53.132;6.090;2022-11-20T11:28:24;5.80;99.90
54700;DHT22;40599;53.132;6.090;2022-11-20T11:30:51;3.30;99.90
54700;DHT22;40599;53.132;6.090;2022-11-20T11:33:24;3.60;99.90
54700;DHT22;40599;53.132;6.090;2022-11-20T11:38:28;3.40;99.90
54700;DHT22;40599;53.132;6.090;2022-11-20T11:40:55;3.40;99.90
54700;DHT22;40599;53.132;6.090;2022-11-20T11:43:22;3.40;99.90
54700;DHT22;40599;53.132;6.090;2022-11-20T11:46:41;3.40;99.90
54700;DHT22;40599;53.132;6.090;2022-11-20T11:49:00;3.50;99.90
54700;DHT22;40599;53.132;6.090;2022-11-20T11:51:51;3.50;99.90
54700;DHT22;40599;53.132;6.090;2022-11-20T11:54:16;3.50;99.90
54700;DHT22;40599;53.132;6.090;2022-11-20T11:56:44;3.50;99.90
54700;DHT22;40599;53.132;6.090;2022-11-20T11:59:12;3.60;99.90
54700;DHT22;40599;53.132;6.090;2022-11-20T12:06:56;3.50;99.90
54700;DHT22;40599;53.132;6.090;2022-11-20T12:09:24;3.50;99.90
54700;DHT22;40599;53.132;6.090;2022-11-20T12:12:36;3.50;99.90
54700;DHT22;40599;53.132;6.090;2022-11-20T12:14:43;3.50;99.90
54700;DHT22;40599;53.132;6.090;2022-11-20T12:17:10;3.50;99.90
54700;DHT22;40599;53.132;6.090;2022-11-20T12:19:36;3.50;99.90
54700;DHT22;40599;53.132;6.090;2022-11-20T12:22:05;4.10;99.90
54700;DHT22;40599;53.132;6.090;2022-11-20T12:37:15;3.40;99.90
54700;DHT22;40599;53.132;6.090;2022-11-20T12:39:48;3.40;99.90
54700;DHT22;40599;53.132;6.090;2022-11-20T12:42:30;3.40;99.90
54700;DHT22;40599;53.132;6.090;2022-11-20T13:06:43;3.40;99.90
54700;DHT22;40599;53.132;6.090;2022-11-20T13:09:11;3.40;99.90
54700;DHT22;40599;53.132;6.090;2022-11-20T13:11:41;3.60;99.90
54700;DHT22;40599;53.132;6.090;2022-11-20T13:19:28;3.30;99.90
54700;DHT22;40599;53.132;6.090;2022-11-20T13:21:55;3.30;99.90
54700;DHT22;40599;53.132;6.090;2022-11-20T13:29:36;3.30;99.90
54700;DHT22;40599;53.132;6.090;2022-11-20T13:34:28;3.20;99.90
54700;DHT22;40599;53.132;6.090;2022-11-20T13:36:56;3.20;99.90
54700;DHT22;40599;53.132;6.090;2022-11-20T13:39:25;3.30;99.90
54700;DHT22;40599;53.132;6.090;2022-11-20T13:41:59;3.20;99.90
54700;DHT22;40599;53.132;6.090;2022-11-20T13:44:37;3.20;99.90
54700;DHT22;40599;53.132;6.090;2022-11-20T13:47:03;3.20;99.90
54700;DHT22;40599;53.132;6.090;2022-11-20T13:49:39;3.30;99.90
54700;DHT22;40599;53.132;6.090;2022-11-20T14:00:15;3.20;99.90
54700;DHT22;40599;53.132;6.090;2022-11-20T14:02:41;3.20;99.90
54700;DHT22;40599;53.132;6.090;2022-11-20T14:05:14;3.20;99.90
54700;DHT22;40599;53.132;6.090;2022-11-20T14:07:42;3.10;99.90
54700;DHT22;40599;53.132;6.090;2022-11-20T14:13:15;3.00;99.90
54700;DHT22;40599;53.132;6.090;2022-11-20T14:15:41;3.00;99.90
54700;DHT22;40599;53.132;6.090;2022-11-20T14:18:41;3.00;99.90
54700;DHT22;40599;53.132;6.090;2022-11-20T14:21:00;3.00;99.90
54700;DHT22;40599;53.132;6.090;2022-11-20T14:23:27;3.50;99.90
54700;DHT22;40599;53.132;6.090;2022-11-20T14:25:53;2.80;99.90
54700;DHT22;40599;53.132;6.090;2022-11-20T14:28:21;2.80;99.90
54700;DHT22;40599;53.132;6.090;2022-11-20T14:30:49;2.80;99.90
54700;DHT22;40599;53.132;6.090;2022-11-20T14:33:15;2.90;99.90
54700;DHT22;40599;53.132;6.090;2022-11-20T14:35:48;3.10;99.90
54700;DHT22;40599;53.132;6.090;2022-11-20T14:38:18;2.80;99.90
54700;DHT22;40599;53.132;6.090;2022-11-20T14:40:45;2.80;99.90
54700;DHT22;40599;53.132;6.090;2022-11-20T14:45:43;1.90;99.90
54700;DHT22;40599;53.132;6.090;2022-11-20T14:48:09;2.80;99.90
54700;DHT22;40599;53.132;6.090;2022-11-20T14:50:35;2.60;99.90
54700;DHT22;40599;53.132;6.090;2022-11-20T14:53:00;2.70;99.90
54700;DHT22;40599;53.132;6.090;2022-11-20T14:55:27;3.80;99.90
54700;DHT22;40599;53.132;6.090;2022-11-20T14:57:57;2.60;99.90
54700;DHT22;40599;53.132;6.090;2022-11-20T15:00:23;2.70;99.90
54700;DHT22;40599;53.132;6.090;2022-11-20T15:02:50;2.60;99.90
54700;DHT22;40599;53.132;6.090;2022-11-20T15:05:17;3.10;99.90
54700;DHT22;40599;53.132;6.090;2022-11-20T15:07:44;2.60;99.90
54700;DHT22;40599;53.132;6.090;2022-11-20T15:10:23;2.50;99.90
54700;DHT22;40599;53.132;6.090;2022-11-20T15:12:52;2.60;99.90
54700;DHT22;40599;53.132;6.090;2022-11-20T15:15:25;2.50;99.90
54700;DHT22;40599;53.132;6.090;2022-11-20T15:17:52;2.50;99.90
54700;DHT22;40599;53.132;6.090;2022-11-20T15:20:17;3.10;99.90
54700;DHT22;40599;53.132;6.090;2022-11-20T15:22:43;2.50;99.90
54700;DHT22;40599;53.132;6.090;2022-11-20T15:25:13;3.20;99.90
54700;DHT22;40599;53.132;6.090;2022-11-20T15:27:38;2.40;99.90
54700;DHT22;40599;53.132;6.090;2022-11-20T15:30:14;2.40;99.90
54700;DHT22;40599;53.132;6.090;2022-11-20T15:32:40;2.40;99.90
54700;DHT22;40599;53.132;6.090;2022-11-20T15:35:06;2.40;99.90
54700;DHT22;40599;53.132;6.090;2022-11-20T15:37:32;2.40;99.90
54700;DHT22;40599;53.132;6.090;2022-11-20T15:39:57;2.80;99.90
54700;DHT22;40599;53.132;6.090;2022-11-20T15:42:23;3.00;99.90
54700;DHT22;40599;53.132;6.090;2022-11-20T15:44:48;2.90;99.90
54700;DHT22;40599;53.132;6.090;2022-11-20T15:47:14;2.30;99.90
54700;DHT22;40599;53.132;6.090;2022-11-20T15:49:40;2.30;99.90
54700;DHT22;40599;53.132;6.090;2022-11-20T15:52:08;2.30;99.90
54700;DHT22;40599;53.132;6.090;2022-11-20T15:54:33;2.30;99.90
54700;DHT22;40599;53.132;6.090;2022-11-20T15:56:59;2.30;99.90
54700;DHT22;40599;53.132;6.090;2022-11-20T15:59:26;2.20;99.90
54700;DHT22;40599;53.132;6.090;2022-11-20T16:01:51;2.90;99.90
54700;DHT22;40599;53.132;6.090;2022-11-20T16:04:17;2.20;99.90
54700;DHT22;40599;53.132;6.090;2022-11-20T16:06:43;2.20;99.90
54700;DHT22;40599;53.132;6.090;2022-11-20T16:09:09;2.70;99.90
54700;DHT22;40599;53.132;6.090;2022-11-20T16:11:35;2.20;99.90
54700;DHT22;40599;53.132;6.090;2022-11-20T16:14:04;2.10;99.90
54700;DHT22;40599;53.132;6.090;2022-11-20T16:16:48;2.10;99.90
54700;DHT22;40599;53.132;6.090;2022-11-20T16:19:14;2.10;99.90
54700;DHT22;40599;53.132;6.090;2022-11-20T16:21:41;2.60;99.90
54700;DHT22;40599;53.132;6.090;2022-11-20T16:24:07;2.20;99.90
54700;DHT22;40599;53.132;6.090;2022-11-20T16:26:33;2.20;99.90
54700;DHT22;40599;53.132;6.090;2022-11-20T16:28:59;2.20;99.90
54700;DHT22;40599;53.132;6.090;2022-11-20T16:31:25;2.10;99.90
54700;DHT22;40599;53.132;6.090;2022-11-20T16:33:51;2.10;99.90
54700;DHT22;40599;53.132;6.090;2022-11-20T16:36:18;2.30;99.90
54700;DHT22;40599;53.132;6.090;2022-11-20T16:38:43;2.10;99.90
54700;DHT22;40599;53.132;6.090;2022-11-20T16:41:09;2.20;99.90
54700;DHT22;40599;53.132;6.090;2022-11-20T16:46:11;2.10;99.90
54700;DHT22;40599;53.132;6.090;2022-11-20T16:48:36;2.10;99.90
54700;DHT22;40599;53.132;6.090;2022-11-20T16:51:02;2.10;99.90
54700;DHT22;40599;53.132;6.090;2022-11-20T16:53:27;2.10;99.90
54700;DHT22;40599;53.132;6.090;2022-11-20T16:55:53;4.00;99.90
54700;DHT22;40599;53.132;6.090;2022-11-20T16:58:18;2.10;99.90
54700;DHT22;40599;53.132;6.090;2022-11-20T17:00:44;2.40;99.90
54700;DHT22;40599;53.132;6.090;2022-11-20T17:03:10;2.10;99.90
54700;DHT22;40599;53.132;6.090;2022-11-20T17:05:36;2.10;99.90
54700;DHT22;40599;53.132;6.090;2022-11-20T17:08:02;2.10;99.90
54700;DHT22;40599;53.132;6.090;2022-11-20T17:10:28;2.10;99.90
54700;DHT22;40599;53.132;6.090;2022-11-20T17:12:53;2.40;99.90
54700;DHT22;40599;53.132;6.090;2022-11-20T17:15:19;2.10;99.90
54700;DHT22;40599;53.132;6.090;2022-11-20T17:17:45;2.00;99.90
54700;DHT22;40599;53.132;6.090;2022-11-20T17:20:10;2.00;99.90
54700;DHT22;40599;53.132;6.090;2022-11-20T17:22:36;2.70;99.90
54700;DHT22;40599;53.132;6.090;2022-11-20T17:25:04;2.00;99.90
54700;DHT22;40599;53.132;6.090;2022-11-20T17:27:30;2.00;99.90
54700;DHT22;40599;53.132;6.090;2022-11-20T17:29:55;2.00;99.90
54700;DHT22;40599;53.132;6.090;2022-11-20T17:32:23;2.50;99.90
54700;DHT22;40599;53.132;6.090;2022-11-20T17:34:48;2.70;99.90
54700;DHT22;40599;53.132;6.090;2022-11-20T17:37:14;2.50;99.90
54700;DHT22;40599;53.132;6.090;2022-11-20T17:39:40;2.00;99.90
54700;DHT22;40599;53.132;6.090;2022-11-20T17:42:05;1.80;99.90